Falken — SBCH — position and weather

sailwx.info

Track history (hours):
 
Tides and Currents Weather Stations Pressure Air Temp Water Temp Dewpoint Dewpoint Depression Visibility Wind Speed Wind Dir Waves Ship Positions

Falken (Sweden)

Last reported at 2016-Sep-29 08:33 UTC. Time now 2016-Sep-29 10:12 UTC.
Position N 38°32' W 010°08'.

Length 40 m; draft 4.2 m.

Type: Sailing vessel. MMSI: 265070000.

Date/timePositionNaut miles runAvg speedWind from/ knotsBaromVisibWave heightAir tempDewpointWater temp
2016-Sep-29 08:33N 38°32' W 010°08'6 6.3
2016-Sep-29 07:33N 38°36' W 010°14'41 5.9
2016-Sep-29 00:34N 39°17' W 010°20'16 5.2
2016-Sep-28 21:33N 39°27' W 010°05'10 5.2
2016-Sep-28 19:32N 39°34' W 009°54'17 5.5
2016-Sep-28 16:33N 39°46' W 009°40'6 5.8
2016-Sep-28 15:32N 39°51' W 009°43'92 5.7
2016-Sep-27 23:25N 41°22' W 009°25'  
2016-Sep-21 09:34N 48°15' W 004°53'8 8.4
2016-Sep-21 08:34N 48°19' W 004°42'2 0.6
2016-Sep-21 05:31N 48°21' W 004°41'0 0.0
2016-Sep-21 03:34N 48°21' W 004°41'0 0.0
2016-Sep-21 02:34N 48°21' W 004°41'2 0.2
2016-Sep-20 17:33N 48°20' W 004°38'6 2.1
2016-Sep-20 14:33N 48°23' W 004°30'0 0.0
2016-Sep-20 13:33N 48°23' W 004°30'0 0.0
2016-Sep-20 10:33N 48°23' W 004°30'0 0.0
2016-Sep-20 08:33N 48°23' W 004°30'0 0.0
2016-Sep-20 07:33N 48°23' W 004°30'0 0.0
2016-Sep-20 06:33N 48°23' W 004°30'0 0.0
2016-Sep-20 02:33N 48°23' W 004°30'0 0.0
2016-Sep-19 23:33N 48°23' W 004°30'0 0.0
2016-Sep-19 19:33N 48°23' W 004°30'0 0.0
2016-Sep-19 18:33N 48°23' W 004°30'0 0.0
2016-Sep-19 16:33N 48°23' W 004°30'0 0.0
2016-Sep-19 14:33N 48°23' W 004°30'0 0.0
2016-Sep-19 13:33N 48°23' W 004°30'0 0.0
2016-Sep-19 12:33N 48°23' W 004°30'0 0.0
2016-Sep-19 11:33N 48°23' W 004°30'0 0.0
2016-Sep-19 09:33N 48°23' W 004°30'  
Track history (hours):
 
Tides and Currents Weather Stations Pressure Air Temp Water Temp Dewpoint Dewpoint Depression Visibility Wind Speed Wind Dir Waves Ship Positions

Falken (Sweden)

Last reported at 2016-Sep-29 08:33 UTC. Time now 2016-Sep-29 10:12 UTC.
Position N 38°32' W 010°08'.

Length 40 m; draft 4.2 m.

Type: Sailing vessel. MMSI: 265070000.

Date/timePositionNaut miles runAvg speedWind from/ knotsBaromVisibWave heightAir tempDewpointWater temp
2016-Sep-29 08:33N 38°32' W 010°08'6 6.3
2016-Sep-29 07:33N 38°36' W 010°14'41 5.9
2016-Sep-29 00:34N 39°17' W 010°20'16 5.2
2016-Sep-28 21:33N 39°27' W 010°05'10 5.2
2016-Sep-28 19:32N 39°34' W 009°54'17 5.5
2016-Sep-28 16:33N 39°46' W 009°40'6 5.8
2016-Sep-28 15:32N 39°51' W 009°43'92 5.7
2016-Sep-27 23:25N 41°22' W 009°25'  
2016-Sep-21 09:34N 48°15' W 004°53'8 8.4
2016-Sep-21 08:34N 48°19' W 004°42'2 0.6
2016-Sep-21 05:31N 48°21' W 004°41'0 0.0
2016-Sep-21 03:34N 48°21' W 004°41'0 0.0
2016-Sep-21 02:34N 48°21' W 004°41'2 0.2
2016-Sep-20 17:33N 48°20' W 004°38'6 2.1
2016-Sep-20 14:33N 48°23' W 004°30'0 0.0
2016-Sep-20 13:33N 48°23' W 004°30'0 0.0
2016-Sep-20 10:33N 48°23' W 004°30'0 0.0
2016-Sep-20 08:33N 48°23' W 004°30'0 0.0
2016-Sep-20 07:33N 48°23' W 004°30'0 0.0
2016-Sep-20 06:33N 48°23' W 004°30'0 0.0
2016-Sep-20 02:33N 48°23' W 004°30'0 0.0
2016-Sep-19 23:33N 48°23' W 004°30'0 0.0
2016-Sep-19 19:33N 48°23' W 004°30'0 0.0
2016-Sep-19 18:33N 48°23' W 004°30'0 0.0
2016-Sep-19 16:33N 48°23' W 004°30'0 0.0
2016-Sep-19 14:33N 48°23' W 004°30'0 0.0
2016-Sep-19 13:33N 48°23' W 004°30'0 0.0
2016-Sep-19 12:33N 48°23' W 004°30'0 0.0
2016-Sep-19 11:33N 48°23' W 004°30'0 0.0
2016-Sep-19 09:33N 48°23' W 004°30'  

Dump ship's entire track history